Time;durP1;ratioP1;P1;durP2;ratioP2;P2;SDS_P1;SDS_P2;PMS_P1;PMS_P2;Temp;Humidity;BMP_temperature;BMP_pressure;BME280_temperature;BME280_humidity;BME280_pressure;Samples;Min_cycle;Max_cycle;Signal;HPM_P1;HPM_P2
2022/07/06 00:01:21;;;;;;;;;;;;;;;;;;;;;
2022/07/06 01:16:28;;;;;;;;;;;;;;;;;;5178726;23;19963;-89
2022/07/06 01:18:54;;;;;;;;;;;;;;;;;;4866529;29;20305;-90
2022/07/06 01:21:21;;;;;;;;;;;;;;;;;;4872557;29;19930;-89
2022/07/06 01:23:49;;;;;;;;;;;;;;;;;;4863609;29;19932;-89
2022/07/06 01:26:17;;;;;;;;;;;;;;;;;;4851769;29;19975;-89
2022/07/06 01:28:43;;;;;;;;;;;;;;;;;;4852199;29;20401;-89
2022/07/06 01:31:10;;;;;;;;;;;;;;;;;;4867295;29;19970;-89
2022/07/06 01:33:45;;;;;;;;;;;;;;;;;;4864928;29;21691;-89
2022/07/06 01:36:13;;;;;;;;;;;;;;;;;;4853325;29;20000;-89
2022/07/06 01:38:40;;;;;;;;;;;;;;;;;;4870675;29;19927;-89
2022/07/06 01:41:07;;;;;;;;;;;;;;;;;;4871662;29;20322;-89
2022/07/06 01:43:33;;;;;;;;;;;;;;;;;;4881663;29;20051;-89
2022/07/06 01:46:00;;;;;;;;;;;;;;;;;;4880927;29;20058;-89
2022/07/06 01:48:27;;;;;;;;;;;;;;;;;;4852633;29;19947;-89
2022/07/06 01:50:53;;;;;;;;;;;;;;;;;;4863084;29;19931;-89
2022/07/06 01:53:19;;;;;;;;;;;;;;;;;;4860191;29;20708;-89
2022/07/06 01:55:50;;;;;;;;;;;;;;;;;;4851207;29;19938;-89
2022/07/06 01:58:18;;;;;;;;;;;;;;;;;;4867632;29;21474;-89
2022/07/06 02:00:43;;;;;;;;;;;;;;;;;;4861320;29;20146;-88
2022/07/06 02:03:09;;;;;;;;;;;;;;;;;;4866349;29;20586;-89
2022/07/06 02:05:35;;;;;;;;;;;;;;;;;;4861559;29;20018;-89
2022/07/06 02:08:01;;;;;;;;;;;;;;;;;;4857862;29;22427;-89
2022/07/06 02:10:28;;;;;;;;;;;;;;;;;;4855646;29;20366;-89
2022/07/06 02:12:54;;;;;;;;;;;;;;;;;;4867743;29;20078;-89
2022/07/06 02:15:21;;;;;;;;;;;;;;;;;;4867757;29;20359;-88
2022/07/06 02:17:47;;;;;;;;;;;;;;;;;;4853766;29;19931;-89
2022/07/06 02:20:14;;;;;;;;;;;;;;;;;;4866110;29;20010;-89
2022/07/06 02:22:44;;;;;;;;;;;;;;;;;;4884271;29;19982;-89
2022/07/06 02:25:11;;;;;;;;;;;;;;;;;;4866732;29;19938;-89
2022/07/06 02:27:44;;;;;;;;;;;;;;;;;;4889071;29;20006;-89
2022/07/06 02:30:10;;;;;;;;;;;;;;;;;;4887769;29;19931;-89
2022/07/06 02:32:37;;;;;;;;;;;;;;;;;;4884354;29;19982;-89
2022/07/06 02:35:04;;;;;;;;;;;;;;;;;;4884582;29;19950;-89
2022/07/06 02:37:32;;;;;;;;;;;;;;;;;;4850170;29;19931;-89
2022/07/06 02:39:59;;;;;;;;;;;;;;;;;;4866508;29;19923;-88
2022/07/06 02:42:26;;;;;;;;;;;;;;;;;;4889541;29;20047;-88
2022/07/06 02:44:54;;;;;;;;;;;;;;;;;;4884267;29;19995;-89
2022/07/06 02:47:21;;;;;;;;;;;;;;;;;;4855437;29;19951;-89
2022/07/06 02:49:48;;;;;;;;;;;;;;;;;;4862102;29;20895;-88
2022/07/06 02:52:24;;;;;;;;;;;;;;;;;;4879911;29;19931;-88
2022/07/06 02:54:50;;;;;;;;;;;;;;;;;;4875041;29;20030;-88
2022/07/06 02:57:16;;;;;;;;;;;;;;;;;;4880302;29;19977;-88
2022/07/06 02:59:42;;;;;;;;;;;;;;;;;;4880652;29;19923;-89
2022/07/06 03:02:09;;;;;;;;;;;;;;;;;;4878047;29;19962;-88
2022/07/06 03:04:36;;;;;;;;;;;;;;;;;;4882452;29;19983;-88
2022/07/06 03:07:03;;;;;;;;;;;;;;;;;;4861614;29;20625;-88
2022/07/06 03:09:30;;;;;;;;;;;;;;;;;;4867078;29;19923;-88
2022/07/06 03:11:58;;;;;;;;;;;;;;;;;;4876549;29;19927;-88
2022/07/06 03:14:26;;;;;;;;;;;;;;;;;;4869928;29;20013;-88
2022/07/06 03:16:52;;;;;;;;;;;;;;;;;;4882234;29;19958;-88
2022/07/06 03:19:18;;;;;;;;;;;;;;;;;;4875303;29;21681;-88
2022/07/06 03:21:45;;;;;;;;;;;;;;;;;;4881765;29;19931;-88
2022/07/06 03:24:12;;;;;;;;;;;;;;;;;;4884692;29;19931;-88
2022/07/06 03:26:39;;;;;;;;;;;;;;;;;;4869449;29;20705;-88
2022/07/06 03:29:05;;;;;;;;;;;;;;;;;;4883550;29;19938;-87
2022/07/06 03:31:31;;;;;;;;;;;;;;;;;;4885305;29;19931;-87
2022/07/06 03:33:58;;;;;;;;;;;;;;;;;;4885391;29;19931;-88
2022/07/06 03:36:24;;;;;;;;;;;;;;;;;;4873101;29;20363;-89
2022/07/06 03:38:51;;;;;;;;;;;;;;;;;;4884539;29;19927;-88
2022/07/06 03:41:18;;;;;;;;;;;;;;;;;;4886731;29;20026;-88
2022/07/06 03:43:45;;;;;;;;;;;;;;;;;;4883839;29;19935;-88
2022/07/06 03:46:11;;;;;;;;;;;;;;;;;;4857641;29;19975;-88
2022/07/06 03:48:38;;;;;;;;;;;;;;;;;;4887368;29;20013;-88
2022/07/06 03:51:06;;;;;;;;;;;;;;;;;;4872098;29;20011;-88
2022/07/06 03:53:32;;;;;;;;;;;;;;;;;;4869061;29;19937;-88
2022/07/06 03:58:47;;;;;;;;;;;;;;;;;;4889230;29;19990;-89
2022/07/06 04:01:14;;;;;;;;;;;;;;;;;;4856249;29;20026;-87
2022/07/06 04:03:40;;;;;;;;;;;;;;;;;;4887392;29;19971;-87
2022/07/06 04:06:08;;;;;;;;;;;;;;;;;;4872173;29;19943;-88
2022/07/06 04:08:34;;;;;;;;;;;;;;;;;;4885073;29;20896;-88
2022/07/06 04:11:07;;;;;;;;;;;;;;;;;;4867987;29;20374;-88
2022/07/06 04:13:34;;;;;;;;;;;;;;;;;;4872502;29;19994;-88
2022/07/06 04:16:01;;;;;;;;;;;;;;;;;;4865329;29;19946;-88
2022/07/06 04:18:28;;;;;;;;;;;;;;;;;;4864674;29;19923;-88
2022/07/06 04:20:57;;;;;;;;;;;;;;;;;;4859999;29;19931;-88
2022/07/06 04:23:24;;;;;;;;;;;;;;;;;;4868177;29;19931;-88
2022/07/06 04:25:51;;;;;;;;;;;;;;;;;;4845502;29;20367;-88
2022/07/06 04:28:18;;;;;;;;;;;;;;;;;;4863906;29;19928;-88
2022/07/06 04:30:45;;;;;;;;;;;;;;;;;;4860706;29;19923;-88
2022/07/06 04:33:11;;;;;;;;;;;;;;;;;;4879839;29;20470;-88
2022/07/06 04:35:38;;;;;;;;;;;;;;;;;;4861601;29;19927;-88
2022/07/06 04:38:05;;;;;;;;;;;;;;;;;;4871242;29;20012;-88
2022/07/06 04:40:32;;;;;;;;;;;;;;;;;;4883191;29;19931;-88
2022/07/06 04:42:59;;;;;;;;;;;;;;;;;;4874568;29;19958;-88
2022/07/06 04:45:26;;;;;;;;;;;;;;;;;;4862283;29;19928;-88
2022/07/06 04:47:52;;;;;;;;;;;;;;;;;;4872912;29;19939;-88
2022/07/06 04:50:18;;;;;;;;;;;;;;;;;;4850026;29;20453;-88
2022/07/06 04:52:44;;;;;;;;;;;;;;;;;;4863119;29;20399;-88
2022/07/06 04:55:10;;;;;;;;;;;;;;;;;;4836907;29;19992;-88
2022/07/06 04:57:37;;;;;;;;;;;;;;;;;;4851527;29;19923;-88
2022/07/06 05:00:03;;;;;;;;;;;;;;;;;;4833921;29;19950;-89
2022/07/06 05:02:30;;;;;;;;;;;;;;;;;;4839129;29;20594;-89
2022/07/06 05:05:06;;;;;;;;;;;;;;;;;;4869747;29;19939;-89
2022/07/06 05:07:33;;;;;;;;;;;;;;;;;;4852862;29;19931;-89
2022/07/06 05:10:01;;;;;;;;;;;;;;;;;;4878950;29;19931;-89
2022/07/06 05:12:28;;;;;;;;;;;;;;;;;;4856512;29;19927;-89
2022/07/06 05:14:55;;;;;;;;;;;;;;;;;;4869806;29;19962;-89
2022/07/06 05:17:21;;;;;;;;;;;;;;;;;;4863477;29;20512;-89
2022/07/06 05:19:47;;;;;;;;;;;;;;;;;;4876797;29;19969;-88
2022/07/06 05:22:13;;;;;;;;;;;;;;;;;;4864398;29;19947;-88
2022/07/06 05:24:39;;;;;;;;;;;;;;;;;;4875328;29;19928;-88
2022/07/06 05:27:05;;;;;;;;;;;;;;;;;;4874270;29;20400;-88
2022/07/06 05:29:30;;;;;;;;;;;;;;;;;;4871763;29;20060;-88
2022/07/06 05:31:56;;;;;;;;;;;;;;;;;;4869414;29;20034;-88
2022/07/06 05:34:24;;;;;;;;;;;;;;;;;;4849102;29;20022;-89
2022/07/06 05:36:50;;;;;;;;;;;;;;;;;;4849119;29;19934;-89
2022/07/06 05:39:19;;;;;;;;;;;;;;;;;;4854654;29;20377;-89
2022/07/06 05:41:45;;;;;;;;;;;;;;;;;;4830718;29;20003;-88
2022/07/06 05:44:11;;;;;;;;;;;;;;;;;;4845714;29;19938;-89
2022/07/06 05:46:37;;;;;;;;;;;;;;;;;;4849319;29;19931;-88
2022/07/06 05:51:51;;;;;;;;;;;;;;;;;;4839651;29;19931;-89
2022/07/06 05:54:17;;;;;;;;;;;;;;;;;;4846364;29;19923;-89
2022/07/06 05:56:43;;;;;;;;;;;;;;;;;;4857550;29;20031;-89
2022/07/06 05:59:09;;;;;;;;;;;;;;;;;;4855815;29;19932;-89
2022/07/06 06:01:35;;;;;;;;;;;;;;;;;;4853825;29;20619;-88
2022/07/06 06:04:01;;;;;;;;;;;;;;;;;;4845745;29;21549;-88
2022/07/06 06:06:27;;;;;;;;;;;;;;;;;;4837917;29;19970;-89
2022/07/06 06:08:53;;;;;;;;;;;;;;;;;;4834574;29;19931;-89
2022/07/06 06:11:19;;;;;;;;;;;;;;;;;;4842464;29;19927;-89
2022/07/06 06:13:44;;;;;;;;;;;;;;;;;;4842118;29;19923;-89
2022/07/06 06:16:11;;;;;;;;;;;;;;;;;;4875367;29;19945;-88
2022/07/06 06:18:36;;;;;;;;;;;;;;;;;;4860120;29;19927;-88
2022/07/06 06:21:02;;;;;;;;;;;;;;;;;;4872573;29;19931;-89
2022/07/06 06:23:28;;;;;;;;;;;;;;;;;;4878520;29;19923;-88
2022/07/06 06:25:54;;;;;;;;;;;;;;;;;;4872902;29;20006;-88
2022/07/06 06:28:20;;;;;;;;;;;;;;;;;;4876601;29;19990;-89
2022/07/06 06:30:46;;;;;;;;;;;;;;;;;;4873327;29;20274;-88
2022/07/06 06:33:12;;;;;;;;;;;;;;;;;;4868364;29;19927;-85
2022/07/06 06:35:38;;;;;;;;;;;;;;;;;;4861841;29;19931;-85
2022/07/06 06:38:04;;;;;;;;;;;;;;;;;;4869359;29;19945;-85
2022/07/06 06:40:30;;;;;;;;;;;;;;;;;;4865450;29;20375;-85
2022/07/06 06:42:58;;;;;;;;;;;;;;;;;;4871381;29;19937;-85
2022/07/06 06:45:25;;;;;;;;;;;;;;;;;;4861817;29;19950;-85
2022/07/06 06:47:50;;;;;;;;;;;;;;;;;;4875253;29;20294;-85
2022/07/06 06:50:16;;;;;;;;;;;;;;;;;;4866712;29;19931;-85
2022/07/06 06:52:42;;;;;;;;;;;;;;;;;;4873945;29;19931;-85
2022/07/06 06:55:08;;;;;;;;;;;;;;;;;;4864506;29;20041;-85
2022/07/06 06:57:34;;;;;;;;;;;;;;;;;;4875018;29;20021;-85
2022/07/06 07:00:01;;;;;;;;;;;;;;;;;;4851869;29;23378;-85
2022/07/06 07:02:26;;;;;;;;;;;;;;;;;;4875759;29;20619;-85
2022/07/06 07:04:52;;;;;;;;;;;;;;;;;;4868469;29;19927;-85
2022/07/06 07:07:36;;;;;;;;;;;;;;;;;;4862217;29;20552;-85
2022/07/06 07:10:03;;;;;;;;;;;;;;;;;;4872752;29;20602;-85
2022/07/06 07:12:29;;;;;;;;;;;;;;;;;;4869483;29;19943;-85
2022/07/06 07:14:55;;;;;;;;;;;;;;;;;;4848697;29;19939;-85
2022/07/06 07:17:21;;;;;;;;;;;;;;;;;;4877214;29;20400;-85
2022/07/06 07:19:47;;;;;;;;;;;;;;;;;;4877766;29;19923;-85
2022/07/06 07:22:13;;;;;;;;;;;;;;;;;;4872906;29;19923;-85
2022/07/06 07:24:38;;;;;;;;;;;;;;;;;;4884228;29;19950;-85
2022/07/06 07:27:05;;;;;;;;;;;;;;;;;;4862429;29;20330;-84
2022/07/06 07:29:31;;;;;;;;;;;;;;;;;;4884986;29;20489;-85
2022/07/06 07:31:57;;;;;;;;;;;;;;;;;;4879735;29;20010;-85
2022/07/06 07:34:22;;;;;;;;;;;;;;;;;;4880666;29;20314;-85
2022/07/06 07:36:48;;;;;;;;;;;;;;;;;;4882511;29;20279;-85
2022/07/06 07:39:14;;;;;;;;;;;;;;;;;;4900903;29;20317;-85
2022/07/06 07:41:43;;;;;;;;;;;;;;;;;;4871839;29;20294;-85
2022/07/06 07:44:09;;;;;;;;;;;;;;;;;;4887305;29;20561;-85
2022/07/06 07:46:35;;;;;;;;;;;;;;;;;;4899219;29;19987;-85
2022/07/06 07:49:01;;;;;;;;;;;;;;;;;;4900671;29;20061;-85
2022/07/06 07:51:27;;;;;;;;;;;;;;;;;;4882342;29;19923;-85
2022/07/06 07:53:53;;;;;;;;;;;;;;;;;;4877898;29;19931;-85
2022/07/06 07:56:19;;;;;;;;;;;;;;;;;;4879007;29;19942;-85
2022/07/06 07:58:48;;;;;;;;;;;;;;;;;;4878590;29;20663;-85
2022/07/06 08:01:14;;;;;;;;;;;;;;;;;;4902088;29;19927;-85
2022/07/06 08:03:43;;;;;;;;;;;;;;;;;;4880688;29;20348;-85
2022/07/06 08:06:08;;;;;;;;;;;;;;;;;;4879632;29;19939;-85
2022/07/06 08:08:34;;;;;;;;;;;;;;;;;;4871637;29;19930;-85
2022/07/06 08:11:00;;;;;;;;;;;;;;;;;;4881611;29;22083;-85
2022/07/06 08:13:26;;;;;;;;;;;;;;;;;;4884792;29;19927;-85
2022/07/06 08:15:52;;;;;;;;;;;;;;;;;;4868376;29;20473;-85
2022/07/06 08:18:18;;;;;;;;;;;;;;;;;;4849273;29;20343;-85
2022/07/06 08:20:44;;;;;;;;;;;;;;;;;;4850141;29;20435;-85
2022/07/06 08:23:10;;;;;;;;;;;;;;;;;;4854409;29;20423;-85
2022/07/06 08:25:36;;;;;;;;;;;;;;;;;;4852068;29;19966;-85
2022/07/06 08:28:02;;;;;;;;;;;;;;;;;;4852910;29;22173;-85
2022/07/06 08:30:31;;;;;;;;;;;;;;;;;;4852136;29;19938;-85
2022/07/06 08:33:00;;;;;;;;;;;;;;;;;;4862402;29;19991;-85
2022/07/06 08:35:26;;;;;;;;;;;;;;;;;;4848344;29;20438;-85
2022/07/06 08:37:52;;;;;;;;;;;;;;;;;;4859460;29;19992;-85
2022/07/06 08:40:17;;;;;;;;;;;;;;;;;;4848233;29;19927;-85
2022/07/06 08:42:43;;;;;;;;;;;;;;;;;;4866430;29;19924;-85
2022/07/06 08:45:09;;;;;;;;;;;;;;;;;;4870663;29;20315;-85
2022/07/06 08:47:35;;;;;;;;;;;;;;;;;;4855424;29;19927;-85
2022/07/06 08:50:01;;;;;;;;;;;;;;;;;;4866771;29;19954;-85
2022/07/06 08:52:27;;;;;;;;;;;;;;;;;;4870238;29;19923;-85
2022/07/06 08:54:53;;;;;;;;;;;;;;;;;;4850756;29;20393;-85
2022/07/06 08:57:19;;;;;;;;;;;;;;;;;;4868199;29;20477;-85
2022/07/06 08:59:45;;;;;;;;;;;;;;;;;;4860510;29;19923;-85
2022/07/06 09:02:11;;;;;;;;;;;;;;;;;;4869306;29;19934;-85
2022/07/06 09:04:37;;;;;;;;;;;;;;;;;;4867659;29;20063;-85
2022/07/06 09:07:03;;;;;;;;;;;;;;;;;;4863311;29;20404;-85
2022/07/06 09:09:30;;;;;;;;;;;;;;;;;;4859044;29;19923;-85
2022/07/06 09:11:56;;;;;;;;;;;;;;;;;;4860521;29;19928;-85
2022/07/06 09:14:22;;;;;;;;;;;;;;;;;;4865161;29;19927;-85
2022/07/06 09:16:48;;;;;;;;;;;;;;;;;;4867916;29;19946;-85
2022/07/06 09:19:15;;;;;;;;;;;;;;;;;;4867869;29;19983;-83
2022/07/06 09:21:41;;;;;;;;;;;;;;;;;;4874225;29;19938;-82
2022/07/06 09:24:07;;;;;;;;;;;;;;;;;;4878265;29;19927;-82
2022/07/06 09:26:33;;;;;;;;;;;;;;;;;;4872584;29;19927;-82
2022/07/06 09:28:59;;;;;;;;;;;;;;;;;;4858546;29;19931;-85
2022/07/06 09:31:25;;;;;;;;;;;;;;;;;;4858512;29;20027;-85
2022/07/06 09:33:51;;;;;;;;;;;;;;;;;;4864223;29;19924;-85
2022/07/06 09:36:17;;;;;;;;;;;;;;;;;;4880893;29;19932;-85
2022/07/06 09:38:43;;;;;;;;;;;;;;;;;;4861463;29;19978;-86
2022/07/06 09:41:09;;;;;;;;;;;;;;;;;;4863096;29;19923;-85
2022/07/06 09:43:35;;;;;;;;;;;;;;;;;;4874410;29;19927;-85
2022/07/06 09:46:01;;;;;;;;;;;;;;;;;;4861385;29;19988;-85
2022/07/06 09:48:27;;;;;;;;;;;;;;;;;;4884743;29;20009;-85
2022/07/06 09:50:53;;;;;;;;;;;;;;;;;;4857872;29;19932;-85
2022/07/06 09:53:19;;;;;;;;;;;;;;;;;;4865602;29;20022;-85
2022/07/06 09:55:45;;;;;;;;;;;;;;;;;;4871176;29;19970;-86
2022/07/06 09:58:11;;;;;;;;;;;;;;;;;;4868013;29;20053;-85
2022/07/06 10:00:38;;;;;;;;;;;;;;;;;;4869670;29;19932;-85
2022/07/06 10:03:04;;;;;;;;;;;;;;;;;;4880372;29;19931;-85
2022/07/06 10:05:29;;;;;;;;;;;;;;;;;;4880485;29;19924;-85
2022/07/06 10:07:55;;;;;;;;;;;;;;;;;;4871610;29;19990;-85
2022/07/06 10:10:21;;;;;;;;;;;;;;;;;;4881377;29;19923;-85
2022/07/06 10:12:49;;;;;;;;;;;;;;;;;;4870113;29;19923;-86
2022/07/06 10:15:15;;;;;;;;;;;;;;;;;;4863995;29;19931;-85
2022/07/06 10:17:41;;;;;;;;;;;;;;;;;;4868959;29;19931;-85
2022/07/06 10:20:07;;;;;;;;;;;;;;;;;;4870147;29;19987;-85
2022/07/06 10:22:33;;;;;;;;;;;;;;;;;;4884186;29;20363;-85
2022/07/06 10:24:59;;;;;;;;;;;;;;;;;;4864657;29;19927;-85
2022/07/06 10:27:26;;;;;;;;;;;;;;;;;;4866067;29;19938;-85
2022/07/06 10:29:52;;;;;;;;;;;;;;;;;;4880172;29;20627;-85
2022/07/06 10:32:18;;;;;;;;;;;;;;;;;;4868819;29;19933;-85
2022/07/06 10:34:44;;;;;;;;;;;;;;;;;;4864145;29;20014;-85
2022/07/06 10:37:10;;;;;;;;;;;;;;;;;;4881568;29;19957;-85
2022/07/06 10:42:21;;;;;;;;;;;;;;;;;;4878428;29;20032;-85
2022/07/06 10:44:47;;;;;;;;;;;;;;;;;;4866480;29;20448;-85
2022/07/06 10:47:13;;;;;;;;;;;;;;;;;;4884727;29;19934;-85
2022/07/06 10:49:39;;;;;;;;;;;;;;;;;;4887631;29;19933;-85
2022/07/06 10:52:05;;;;;;;;;;;;;;;;;;4865975;29;19927;-85
2022/07/06 10:54:31;;;;;;;;;;;;;;;;;;4880445;29;19927;-85
2022/07/06 10:56:57;;;;;;;;;;;;;;;;;;4881209;29;19971;-85
2022/07/06 10:59:23;;;;;;;;;;;;;;;;;;4866336;29;19947;-85
2022/07/06 11:01:49;;;;;;;;;;;;;;;;;;4866894;29;19963;-84
2022/07/06 11:04:15;;;;;;;;;;;;;;;;;;4882580;29;19927;-85
2022/07/06 11:06:41;;;;;;;;;;;;;;;;;;4866479;29;19928;-85
2022/07/06 11:09:07;;;;;;;;;;;;;;;;;;4862473;29;19930;-85
2022/07/06 11:11:33;;;;;;;;;;;;;;;;;;4882571;29;19931;-85
2022/07/06 11:13:59;;;;;;;;;;;;;;;;;;4878800;29;19923;-85
2022/07/06 11:16:26;;;;;;;;;;;;;;;;;;4868192;29;19942;-85
2022/07/06 11:18:52;;;;;;;;;;;;;;;;;;4896856;29;19929;-85
2022/07/06 11:21:18;;;;;;;;;;;;;;;;;;4866826;29;19926;-86
2022/07/06 11:23:44;;;;;;;;;;;;;;;;;;4860426;29;20001;-86
2022/07/06 11:26:10;;;;;;;;;;;;;;;;;;4878568;29;19935;-85
2022/07/06 11:28:35;;;;;;;;;;;;;;;;;;4881867;29;20369;-85
2022/07/06 11:31:01;;;;;;;;;;;;;;;;;;4879124;29;20037;-85
2022/07/06 11:33:27;;;;;;;;;;;;;;;;;;4868315;29;19972;-85
2022/07/06 11:35:53;;;;;;;;;;;;;;;;;;4868949;29;19943;-86
2022/07/06 11:38:19;;;;;;;;;;;;;;;;;;4878757;29;20014;-85
2022/07/06 11:40:45;;;;;;;;;;;;;;;;;;4863209;29;19939;-86
2022/07/06 11:43:11;;;;;;;;;;;;;;;;;;4884928;29;20469;-86
2022/07/06 11:45:37;;;;;;;;;;;;;;;;;;4882363;29;20009;-85
2022/07/06 11:48:03;;;;;;;;;;;;;;;;;;4872175;29;20419;-85
2022/07/06 11:50:29;;;;;;;;;;;;;;;;;;4879777;29;20291;-85
2022/07/06 11:52:55;;;;;;;;;;;;;;;;;;4858047;29;19927;-85
2022/07/06 11:55:21;;;;;;;;;;;;;;;;;;4870687;29;20041;-85
2022/07/06 11:57:47;;;;;;;;;;;;;;;;;;4886610;29;19940;-85
2022/07/06 12:00:13;;;;;;;;;;;;;;;;;;4884116;29;19934;-85
2022/07/06 12:02:38;;;;;;;;;;;;;;;;;;4880122;29;19927;-85
2022/07/06 12:05:05;;;;;;;;;;;;;;;;;;4882261;29;20009;-85
2022/07/06 12:07:31;;;;;;;;;;;;;;;;;;4885429;29;19946;-85
2022/07/06 12:09:57;;;;;;;;;;;;;;;;;;4868575;29;19950;-85
2022/07/06 12:12:23;;;;;;;;;;;;;;;;;;4867185;29;19987;-85
2022/07/06 12:14:49;;;;;;;;;;;;;;;;;;4899290;29;19927;-85
2022/07/06 12:17:15;;;;;;;;;;;;;;;;;;4903678;29;19943;-85
2022/07/06 12:19:41;;;;;;;;;;;;;;;;;;4901145;29;19923;-85
2022/07/06 12:22:07;;;;;;;;;;;;;;;;;;4881023;29;20385;-85
2022/07/06 12:24:34;;;;;;;;;;;;;;;;;;4875623;29;19931;-85
2022/07/06 12:27:01;;;;;;;;;;;;;;;;;;4868008;29;20465;-85
2022/07/06 12:29:27;;;;;;;;;;;;;;;;;;4899242;29;20017;-86
2022/07/06 12:31:53;;;;;;;;;;;;;;;;;;4875502;29;19927;-85
2022/07/06 12:34:19;;;;;;;;;;;;;;;;;;4881309;29;19927;-85
2022/07/06 12:36:45;;;;;;;;;;;;;;;;;;4867931;29;19934;-85
2022/07/06 12:39:12;;;;;;;;;;;;;;;;;;4874808;29;19982;-86
2022/07/06 12:41:38;;;;;;;;;;;;;;;;;;4894609;29;19927;-86
2022/07/06 12:44:04;;;;;;;;;;;;;;;;;;4888279;29;19979;-86
2022/07/06 12:46:30;;;;;;;;;;;;;;;;;;4898469;29;20452;-86
2022/07/06 12:48:56;;;;;;;;;;;;;;;;;;4895166;29;20018;-86
2022/07/06 12:51:22;;;;;;;;;;;;;;;;;;4893174;29;19931;-86
2022/07/06 12:53:49;;;;;;;;;;;;;;;;;;4870979;29;19950;-86
2022/07/06 12:56:16;;;;;;;;;;;;;;;;;;4875873;29;19935;-86
2022/07/06 12:58:41;;;;;;;;;;;;;;;;;;4864577;29;19931;-87
2022/07/06 13:01:07;;;;;;;;;;;;;;;;;;4873164;29;19977;-85
2022/07/06 13:03:33;;;;;;;;;;;;;;;;;;4875928;29;19987;-86
2022/07/06 13:05:59;;;;;;;;;;;;;;;;;;4862085;29;22458;-86
2022/07/06 13:08:25;;;;;;;;;;;;;;;;;;4858900;29;19938;-86
2022/07/06 13:10:51;;;;;;;;;;;;;;;;;;4865224;29;19938;-86
2022/07/06 13:13:17;;;;;;;;;;;;;;;;;;4873298;29;19958;-86
2022/07/06 13:15:43;;;;;;;;;;;;;;;;;;4866047;29;19981;-86
2022/07/06 13:18:09;;;;;;;;;;;;;;;;;;4875113;29;20013;-86
2022/07/06 13:20:35;;;;;;;;;;;;;;;;;;4854178;29;20393;-86
2022/07/06 13:23:01;;;;;;;;;;;;;;;;;;4846981;29;22099;-86
2022/07/06 13:25:27;;;;;;;;;;;;;;;;;;4870857;29;19927;-86
2022/07/06 13:27:53;;;;;;;;;;;;;;;;;;4871166;29;19937;-85
2022/07/06 13:30:19;;;;;;;;;;;;;;;;;;4865522;29;20021;-85
2022/07/06 13:32:45;;;;;;;;;;;;;;;;;;4865264;29;20481;-85
2022/07/06 13:35:11;;;;;;;;;;;;;;;;;;4853526;29;19931;-83
2022/07/06 13:37:37;;;;;;;;;;;;;;;;;;4869116;29;19923;-83
2022/07/06 13:40:03;;;;;;;;;;;;;;;;;;4862530;29;20073;-83
2022/07/06 13:42:29;;;;;;;;;;;;;;;;;;4869146;29;20405;-82
2022/07/06 13:44:55;;;;;;;;;;;;;;;;;;4847656;29;19994;-83
2022/07/06 13:47:21;;;;;;;;;;;;;;;;;;4855096;29;19934;-83
2022/07/06 13:49:47;;;;;;;;;;;;;;;;;;4863963;29;19978;-83
2022/07/06 13:52:13;;;;;;;;;;;;;;;;;;4872309;29;19938;-83
2022/07/06 13:54:39;;;;;;;;;;;;;;;;;;4874057;29;19927;-83
2022/07/06 13:57:06;;;;;;;;;;;;;;;;;;4872190;29;19991;-82
2022/07/06 13:59:32;;;;;;;;;;;;;;;;;;4862119;29;19931;-83
2022/07/06 14:01:58;;;;;;;;;;;;;;;;;;4873660;29;19931;-83
2022/07/06 14:04:25;;;;;;;;;;;;;;;;;;4853394;29;19927;-83
2022/07/06 14:06:51;;;;;;;;;;;;;;;;;;4846790;29;20519;-84
2022/07/06 14:09:17;;;;;;;;;;;;;;;;;;4869780;29;19931;-84
2022/07/06 14:11:43;;;;;;;;;;;;;;;;;;4845991;29;20334;-83
2022/07/06 14:14:09;;;;;;;;;;;;;;;;;;4846785;29;19931;-84
2022/07/06 14:16:35;;;;;;;;;;;;;;;;;;4859701;29;19957;-85
2022/07/06 14:19:01;;;;;;;;;;;;;;;;;;4853898;29;22057;-83
2022/07/06 14:21:28;;;;;;;;;;;;;;;;;;4877465;29;19930;-82
2022/07/06 14:23:54;;;;;;;;;;;;;;;;;;4875579;29;20518;-83
2022/07/06 14:26:20;;;;;;;;;;;;;;;;;;4880421;29;19931;-83
2022/07/06 14:28:46;;;;;;;;;;;;;;;;;;4855631;29;19927;-83
2022/07/06 14:31:12;;;;;;;;;;;;;;;;;;4875645;29;19934;-83
2022/07/06 14:33:38;;;;;;;;;;;;;;;;;;4877632;29;19926;-83
2022/07/06 14:36:04;;;;;;;;;;;;;;;;;;4854052;29;19962;-83
2022/07/06 14:38:30;;;;;;;;;;;;;;;;;;4875975;29;19930;-83
2022/07/06 14:40:56;;;;;;;;;;;;;;;;;;4872725;29;20421;-82
2022/07/06 14:43:22;;;;;;;;;;;;;;;;;;4864352;29;19935;-83
2022/07/06 14:45:47;;;;;;;;;;;;;;;;;;4870242;29;19927;-82
2022/07/06 14:48:13;;;;;;;;;;;;;;;;;;4864366;29;20262;-83
2022/07/06 14:50:39;;;;;;;;;;;;;;;;;;4888948;29;20439;-83
2022/07/06 14:53:05;;;;;;;;;;;;;;;;;;4850395;29;19938;-83
2022/07/06 14:55:31;;;;;;;;;;;;;;;;;;4858627;29;19931;-82
2022/07/06 14:57:57;;;;;;;;;;;;;;;;;;4869231;29;19933;-83
2022/07/06 15:00:23;;;;;;;;;;;;;;;;;;4864799;29;19927;-83
2022/07/06 15:02:49;;;;;;;;;;;;;;;;;;4865721;29;20034;-83
2022/07/06 15:05:15;;;;;;;;;;;;;;;;;;4867599;29;19923;-84
2022/07/06 15:07:41;;;;;;;;;;;;;;;;;;4851480;29;19931;-86
2022/07/06 15:10:07;;;;;;;;;;;;;;;;;;4870274;29;19981;-86
2022/07/06 15:12:33;;;;;;;;;;;;;;;;;;4860948;29;20033;-86
2022/07/06 15:14:59;;;;;;;;;;;;;;;;;;4872839;29;19927;-85
2022/07/06 15:17:25;;;;;;;;;;;;;;;;;;4878587;29;19931;-85
2022/07/06 15:19:51;;;;;;;;;;;;;;;;;;4845314;29;19923;-85
2022/07/06 15:22:17;;;;;;;;;;;;;;;;;;4882380;29;19976;-84
2022/07/06 15:24:43;;;;;;;;;;;;;;;;;;4877176;29;19931;-85
2022/07/06 15:27:09;;;;;;;;;;;;;;;;;;4880694;29;19982;-85
2022/07/06 15:29:35;;;;;;;;;;;;;;;;;;4881185;29;19999;-85
2022/07/06 15:32:01;;;;;;;;;;;;;;;;;;4863023;29;21791;-85
2022/07/06 15:34:28;;;;;;;;;;;;;;;;;;4885656;29;20386;-85
2022/07/06 15:36:55;;;;;;;;;;;;;;;;;;4879341;29;19936;-84
2022/07/06 15:39:21;;;;;;;;;;;;;;;;;;4893453;29;19926;-85
2022/07/06 15:41:47;;;;;;;;;;;;;;;;;;4850338;29;20011;-84
2022/07/06 15:44:13;;;;;;;;;;;;;;;;;;4860395;29;19923;-86
2022/07/06 15:46:39;;;;;;;;;;;;;;;;;;4888849;29;20050;-84
2022/07/06 15:49:05;;;;;;;;;;;;;;;;;;4865026;29;19955;-84
2022/07/06 15:51:31;;;;;;;;;;;;;;;;;;4860071;29;19932;-83
2022/07/06 15:53:57;;;;;;;;;;;;;;;;;;4846015;29;20350;-84
2022/07/06 15:56:22;;;;;;;;;;;;;;;;;;4872387;29;19935;-84
2022/07/06 15:58:48;;;;;;;;;;;;;;;;;;4865133;29;20018;-85
2022/07/06 16:01:14;;;;;;;;;;;;;;;;;;4867059;29;19994;-85
2022/07/06 16:03:40;;;;;;;;;;;;;;;;;;4869237;29;19935;-85
2022/07/06 16:06:06;;;;;;;;;;;;;;;;;;4851409;29;19930;-85
2022/07/06 16:08:32;;;;;;;;;;;;;;;;;;4869943;29;19927;-86
2022/07/06 16:10:58;;;;;;;;;;;;;;;;;;4866258;29;19934;-85
2022/07/06 16:13:24;;;;;;;;;;;;;;;;;;4886915;29;19986;-85
2022/07/06 16:15:50;;;;;;;;;;;;;;;;;;4864022;29;19935;-86
2022/07/06 16:18:16;;;;;;;;;;;;;;;;;;4856312;29;19927;-84
2022/07/06 16:20:42;;;;;;;;;;;;;;;;;;4889051;29;19931;-85
2022/07/06 16:23:08;;;;;;;;;;;;;;;;;;4890185;29;19924;-84
2022/07/06 16:25:34;;;;;;;;;;;;;;;;;;4856183;29;20050;-84
2022/07/06 16:28:00;;;;;;;;;;;;;;;;;;4856391;29;20017;-86
2022/07/06 16:30:26;;;;;;;;;;;;;;;;;;4861828;29;19923;-85
2022/07/06 16:32:52;;;;;;;;;;;;;;;;;;4868614;29;19935;-85
2022/07/06 16:35:19;;;;;;;;;;;;;;;;;;4862398;29;19919;-85
2022/07/06 16:37:45;;;;;;;;;;;;;;;;;;4866654;29;21848;-84
2022/07/06 16:40:11;;;;;;;;;;;;;;;;;;4878295;29;19930;-85
2022/07/06 16:42:37;;;;;;;;;;;;;;;;;;4877344;29;19927;-85
2022/07/06 16:45:03;;;;;;;;;;;;;;;;;;4875253;29;19931;-85
2022/07/06 16:47:29;;;;;;;;;;;;;;;;;;4874840;29;19931;-84
2022/07/06 16:49:57;;;;;;;;;;;;;;;;;;4856938;29;21048;-84
2022/07/06 16:52:23;;;;;;;;;;;;;;;;;;4861152;29;20568;-85
2022/07/06 16:54:49;;;;;;;;;;;;;;;;;;4855350;29;19970;-84
2022/07/06 16:57:15;;;;;;;;;;;;;;;;;;4864350;29;19941;-84
2022/07/06 16:59:41;;;;;;;;;;;;;;;;;;4846299;29;20018;-84
2022/07/06 17:02:07;;;;;;;;;;;;;;;;;;4856689;29;19966;-84
2022/07/06 17:04:33;;;;;;;;;;;;;;;;;;4852167;29;20045;-84
2022/07/06 17:06:59;;;;;;;;;;;;;;;;;;4858792;29;19934;-84
2022/07/06 17:09:25;;;;;;;;;;;;;;;;;;4864320;29;20016;-84
2022/07/06 17:11:51;;;;;;;;;;;;;;;;;;4841733;29;20420;-85
2022/07/06 17:14:17;;;;;;;;;;;;;;;;;;4861961;29;19927;-85
2022/07/06 17:16:43;;;;;;;;;;;;;;;;;;4844924;29;19934;-86
2022/07/06 17:19:09;;;;;;;;;;;;;;;;;;4862019;29;19923;-85
2022/07/06 17:21:35;;;;;;;;;;;;;;;;;;4871531;29;19931;-85
2022/07/06 17:24:01;;;;;;;;;;;;;;;;;;4863462;29;19937;-85
2022/07/06 17:26:27;;;;;;;;;;;;;;;;;;4870718;29;20346;-85
2022/07/06 17:28:56;;;;;;;;;;;;;;;;;;4869901;29;19938;-85
2022/07/06 17:31:23;;;;;;;;;;;;;;;;;;4868135;29;19934;-86
2022/07/06 17:33:50;;;;;;;;;;;;;;;;;;4863636;29;20061;-86
2022/07/06 17:36:16;;;;;;;;;;;;;;;;;;4865213;29;19935;-86
2022/07/06 17:38:42;;;;;;;;;;;;;;;;;;4850770;29;20392;-85
2022/07/06 17:41:08;;;;;;;;;;;;;;;;;;4870098;29;19926;-86
2022/07/06 17:43:34;;;;;;;;;;;;;;;;;;4864541;29;20871;-86
2022/07/06 17:46:00;;;;;;;;;;;;;;;;;;4860698;29;20334;-85
2022/07/06 17:48:26;;;;;;;;;;;;;;;;;;4863321;29;19953;-86
2022/07/06 17:50:52;;;;;;;;;;;;;;;;;;4854937;29;19938;-85
2022/07/06 17:53:17;;;;;;;;;;;;;;;;;;4866792;29;19930;-86
2022/07/06 17:55:47;;;;;;;;;;;;;;;;;;4868635;29;19942;-86
2022/07/06 17:58:14;;;;;;;;;;;;;;;;;;4856859;29;19938;-86
2022/07/06 18:00:40;;;;;;;;;;;;;;;;;;4854446;29;20401;-86